Time;durP1;ratioP1;P1;durP2;ratioP2;P2;SDS_P1;SDS_P2;PMS_P1;PMS_P2;Temp;Humidity;BMP_temperature;BMP_pressure;BME280_temperature;BME280_humidity;BME280_pressure;Samples;Min_cycle;Max_cycle;Signal;HPM_P1;HPM_P2
2021/07/24 00:00:07;;;;;;;11.82;8.55;;;;;;;18.90;64.18;99462.97;4981962;28;20104;-70
2021/07/24 00:02:54;;;;;;;18.25;9.05;;;;;;;18.88;64.06;99449.88;4981779;28;20109;-70
2021/07/24 00:05:43;;;;;;;11.65;8.65;;;;;;;18.83;64.47;99450.00;4996460;28;20057;-71
2021/07/24 00:08:27;;;;;;;13.70;9.30;;;;;;;18.84;64.60;99475.34;4981963;28;20189;-70
2021/07/24 00:11:11;;;;;;;12.02;8.95;;;;;;;18.85;64.47;99471.81;4982059;28;20049;-70
2021/07/24 00:13:58;;;;;;;;;;;;;;;18.84;64.28;99467.47;4982752;28;20093;-70
2021/07/24 00:16:44;;;;;;;15.18;9.55;;;;;;;18.83;64.54;99481.50;4996542;28;19920;-70
2021/07/24 00:19:29;;;;;;;16.02;10.32;;;;;;;18.83;64.65;99485.91;4981480;28;20049;-70
2021/07/24 00:22:12;;;;;;;13.25;9.52;;;;;;;18.82;64.68;99477.16;4996210;28;20061;-71
2021/07/24 00:24:56;;;;;;;14.02;9.82;;;;;;;18.82;64.47;99464.03;4996516;28;20049;-71
2021/07/24 00:27:40;;;;;;;12.80;8.95;;;;;;;18.80;64.49;99455.31;4995954;28;20421;-69
2021/07/24 00:30:24;;;;;;;10.50;9.07;;;;;;;18.80;64.78;99450.06;4996658;28;20410;-71
2021/07/24 00:33:09;;;;;;;16.85;10.35;;;;;;;18.77;64.55;99442.28;4995997;28;20049;-70
2021/07/24 00:35:53;;;;;;;13.82;9.45;;;;;;;18.75;64.76;99441.50;4981518;28;20133;-71
2021/07/24 00:38:40;;;;;;;14.63;9.10;;;;;;;18.73;64.80;99435.41;4996411;28;20052;-70
2021/07/24 00:41:37;;;;;;;14.80;9.18;;;;;;;18.70;64.64;99431.09;4981345;28;20057;-69
2021/07/24 00:44:27;;;;;;;14.90;8.95;;;;;;;18.70;65.15;99432.88;4981086;28;20069;-69
2021/07/24 00:47:19;;;;;;;13.88;9.30;;;;;;;18.71;64.82;99431.97;4995768;28;20050;-70
2021/07/24 00:50:11;;;;;;;16.30;9.80;;;;;;;18.70;64.89;99419.75;4980991;28;20048;-71
2021/07/24 00:53:00;;;;;;;14.82;9.52;;;;;;;18.69;64.97;99416.25;4995826;28;20052;-70
2021/07/24 00:55:46;;;;;;;11.23;9.55;;;;;;;18.65;64.99;99413.75;4995736;28;20505;-69
2021/07/24 00:58:35;;;;;;;12.68;9.35;;;;;;;18.63;65.14;99400.69;4981187;28;20045;-70
2021/07/24 01:01:19;;;;;;;14.73;9.70;;;;;;;18.60;64.96;99392.03;4980715;28;20053;-70
2021/07/24 01:04:09;;;;;;;12.77;9.02;;;;;;;18.58;65.25;99391.22;4981123;28;20057;-71
2021/07/24 01:06:54;;;;;;;15.95;10.23;;;;;;;18.54;65.06;99383.44;4995175;28;20097;-71
2021/07/24 01:09:41;;;;;;;14.73;9.20;;;;;;;18.54;65.31;99391.31;4994828;28;20461;-71
2021/07/24 01:12:28;;;;;;;14.00;9.73;;;;;;;18.52;65.37;99398.34;4980919;28;20068;-69
2021/07/24 01:15:17;;;;;;;13.25;9.40;;;;;;;18.50;65.25;99396.69;4995445;28;20126;-70
2021/07/24 01:18:06;;;;;;;14.98;10.02;;;;;;;18.47;65.56;99379.25;4980430;28;20516;-70
2021/07/24 01:20:56;;;;;;;13.55;9.52;;;;;;;18.46;65.67;99368.78;4980675;28;20069;-70
2021/07/24 01:23:40;;;;;;;17.23;10.63;;;;;;;18.44;65.31;99350.50;4980267;28;20571;-71
2021/07/24 01:26:32;;;;;;;13.05;10.38;;;;;;;18.46;65.45;99342.56;4980775;28;20497;-69
2021/07/24 01:29:19;;;;;;;13.25;10.23;;;;;;;18.44;65.73;99340.00;4995533;28;20052;-70
2021/07/24 01:32:06;;;;;;;15.25;10.48;;;;;;;18.43;65.62;99340.91;4980592;28;20056;-71
2021/07/24 01:34:49;;;;;;;14.43;8.88;;;;;;;18.42;65.76;99336.56;4994606;28;20045;-71
2021/07/24 01:37:36;;;;;;;12.13;10.52;;;;;;;18.41;65.60;99325.19;4980462;28;20073;-70
2021/07/24 01:40:23;;;;;;;17.38;10.65;;;;;;;18.41;65.60;99325.19;4980116;28;20049;-70
2021/07/24 01:43:10;;;;;;;15.70;10.50;;;;;;;18.42;65.66;99324.28;4994971;28;20129;-70
2021/07/24 01:45:54;;;;;;;18.00;9.68;;;;;;;18.41;65.70;99333.06;4994684;28;20124;-70
2021/07/24 01:54:38;;;;;;;13.95;10.63;;;;;;;18.40;65.75;99314.75;4994851;28;20493;-71
2021/07/24 01:57:23;;;;;;;15.15;11.50;;;;;;;18.38;65.46;99306.91;4994722;28;20053;-70
2021/07/24 02:00:09;;;;;;;17.55;11.80;;;;;;;18.37;65.98;99313.03;4993465;28;20518;-69
2021/07/24 02:03:06;;;;;;;19.23;11.25;;;;;;;18.38;65.81;99317.38;4979911;28;20050;-70
2021/07/24 02:05:53;;;;;;;15.15;12.05;;;;;;;18.35;66.10;99301.75;4980174;28;20410;-71
2021/07/24 02:08:43;;;;;;;18.38;11.75;;;;;;;18.33;65.97;99306.19;4980180;28;20544;-70
2021/07/24 02:11:27;;;;;;;14.95;11.20;;;;;;;18.35;66.45;99311.38;4979970;28;20146;-71
2021/07/24 02:14:14;;;;;;;;;;;;;;;18.32;65.99;99293.09;4980461;28;20442;-69
2021/07/24 02:17:01;;;;;;;15.35;11.82;;;;;;;18.30;66.34;99277.41;4994352;28;19921;-70
2021/07/24 02:19:45;;;;;;;18.27;11.93;;;;;;;18.29;66.10;99285.34;4994312;28;20069;-71
2021/07/24 02:22:32;;;;;;;;;;;;;;;18.29;66.22;99272.22;4994741;28;20100;-69
2021/07/24 02:25:21;;;;;;;16.23;12.85;;;;;;;18.29;65.99;99262.56;4994195;28;19972;-70
2021/07/24 02:28:06;;;;;;;15.27;11.77;;;;;;;18.30;66.40;99261.69;4994556;28;20057;-70
2021/07/24 02:30:51;;;;;;;20.40;12.90;;;;;;;18.32;66.34;99265.13;4979577;28;20054;-70
2021/07/24 02:33:35;;;;;;;19.63;12.98;;;;;;;18.35;66.32;99264.16;4979444;28;20049;-70
2021/07/24 02:36:19;;;;;;;16.60;13.18;;;;;;;18.35;66.37;99266.78;4979822;28;20552;-71
2021/07/24 02:39:05;;;;;;;17.70;12.63;;;;;;;18.34;66.19;99271.19;4994500;28;20048;-70
2021/07/24 02:41:52;;;;;;;18.33;12.48;;;;;;;18.33;66.57;99271.22;4994376;28;20552;-71
2021/07/24 02:44:39;;;;;;;17.30;12.52;;;;;;;18.33;66.34;99266.84;4993950;28;20049;-70
2021/07/24 02:47:23;;;;;;;16.40;12.93;;;;;;;18.30;66.54;99260.81;4979694;28;20088;-69
2021/07/24 02:50:11;;;;;;;19.50;13.32;;;;;;;18.28;66.53;99249.53;4993550;28;20060;-72
2021/07/24 02:52:55;;;;;;;17.20;11.82;;;;;;;18.27;66.66;99248.66;4978991;28;20122;-70
2021/07/24 02:55:41;;;;;;;20.45;13.18;;;;;;;18.26;66.37;99242.56;4979353;28;20053;-70
2021/07/24 02:58:25;;;;;;;18.85;13.77;;;;;;;18.25;66.61;99246.09;4979012;28;20054;-70
2021/07/24 03:01:10;;;;;;;15.52;12.68;;;;;;;18.24;66.84;99249.59;4993725;28;20046;-69
2021/07/24 03:03:57;;;;;;;;;;;;;;;18.23;66.68;99261.00;4979376;28;20073;-71
2021/07/24 03:06:46;;;;;;;18.70;13.07;;;;;;;18.23;66.71;99273.22;4994163;28;19928;-70
2021/07/24 03:09:30;;;;;;;21.80;14.07;;;;;;;18.23;67.01;99289.84;4993810;28;20054;-71
2021/07/24 03:12:17;;;;;;;17.67;13.77;;;;;;;18.25;67.12;99282.78;4983159;28;20100;-69
2021/07/24 03:15:04;;;;;;;19.42;13.93;;;;;;;18.28;66.79;99283.63;4997193;28;20058;-70
2021/07/24 03:17:53;;;;;;;20.83;13.43;;;;;;;18.28;66.85;99287.09;4982692;28;20140;-71
2021/07/24 03:20:37;;;;;;;22.55;14.55;;;;;;;18.26;67.08;99287.13;4997577;28;20053;-70
2021/07/24 03:23:22;;;;;;;19.17;14.75;;;;;;;18.25;67.01;99287.16;4983107;28;20061;-70
2021/07/24 03:26:08;;;;;;;21.08;15.10;;;;;;;18.25;66.90;99279.28;4982946;28;20049;-69
2021/07/24 03:28:52;;;;;;;15.60;13.57;;;;;;;18.25;67.02;99267.06;4982509;28;20517;-70
2021/07/24 03:31:36;;;;;;;18.33;13.65;;;;;;;18.26;67.00;99257.41;4997662;28;20101;-70
2021/07/24 03:34:23;;;;;;;23.05;14.32;;;;;;;18.24;67.18;99246.97;4982648;28;20159;-70
2021/07/24 03:37:07;;;;;;;19.33;14.57;;;;;;;18.23;67.07;99240.00;4996834;28;20537;-71
2021/07/24 03:39:56;;;;;;;16.38;13.65;;;;;;;18.23;67.24;99239.13;4997099;28;20532;-71
2021/07/24 03:42:45;;;;;;;17.63;13.57;;;;;;;18.21;67.14;99233.94;4982175;28;20474;-70
2021/07/24 03:45:33;;;;;;;22.35;14.98;;;;;;;18.21;67.23;99230.47;4982803;28;20137;-71
2021/07/24 03:48:17;;;;;;;21.52;14.45;;;;;;;18.22;67.35;99238.28;4997396;28;20057;-70
2021/07/24 03:51:04;;;;;;;23.08;14.60;;;;;;;18.23;67.07;99240.00;4982534;28;20516;-71
2021/07/24 03:53:48;;;;;;;24.88;14.80;;;;;;;18.25;67.32;99253.06;4997038;28;20053;-69
2021/07/24 03:56:35;;;;;;;21.33;14.63;;;;;;;18.26;67.14;99253.03;4996760;28;20045;-69
2021/07/24 03:59:24;;;;;;;24.08;15.27;;;;;;;18.26;67.42;99260.91;4996244;28;20045;-70
2021/07/24 04:02:12;;;;;;;18.85;14.23;;;;;;;18.26;67.03;99265.28;4982206;28;20057;-71
2021/07/24 04:04:56;;;;;;;22.98;15.65;;;;;;;18.27;67.49;99272.25;4996893;28;20115;-70
2021/07/24 04:07:46;;;;;;;20.02;15.25;;;;;;;18.26;67.19;99281.91;4981865;28;20057;-70
2021/07/24 04:10:30;;;;;;;18.80;15.00;;;;;;;18.25;67.62;99285.41;4982151;28;20050;-69
2021/07/24 04:13:17;;;;;;;16.83;14.73;;;;;;;18.27;67.21;99293.22;4981935;28;20061;-70
2021/07/24 04:16:01;;;;;;;20.65;15.18;;;;;;;18.29;67.39;99295.84;4982076;28;20046;-70
2021/07/24 04:18:48;;;;;;;23.33;15.55;;;;;;;18.31;67.46;99286.13;4982024;28;20589;-70
2021/07/24 04:21:32;;;;;;;21.35;15.38;;;;;;;18.31;67.40;99286.13;4981162;28;20062;-70
2021/07/24 04:24:19;;;;;;;16.98;13.68;;;;;;;18.31;67.45;99289.63;4996266;28;20093;-70
2021/07/24 04:27:10;;;;;;;19.63;15.48;;;;;;;18.32;67.58;99287.84;4996185;28;20049;-71
2021/07/24 04:29:57;;;;;;;16.95;14.05;;;;;;;18.31;67.58;99292.25;4981863;28;20461;-71
2021/07/24 04:32:41;;;;;;;19.95;14.57;;;;;;;18.32;67.49;99293.09;4996296;28;20052;-70
2021/07/24 04:35:26;;;;;;;18.75;15.15;;;;;;;18.32;67.77;99293.97;4981651;28;20120;-71
2021/07/24 04:38:09;;;;;;;19.17;14.00;;;;;;;18.31;67.68;99279.13;4995159;28;20056;-70
2021/07/24 04:41:00;;;;;;;18.13;14.68;;;;;;;18.31;67.72;99275.63;4981659;28;20101;-70
2021/07/24 04:43:44;;;;;;;19.98;15.50;;;;;;;18.29;67.84;99264.34;4981670;28;20397;-70
2021/07/24 04:46:28;;;;;;;21.60;15.48;;;;;;;18.29;67.96;99266.97;4996057;28;20053;-71
2021/07/24 04:49:13;;;;;;;19.45;15.13;;;;;;;18.29;67.74;99270.44;4995941;28;20081;-71
2021/07/24 04:52:02;;;;;;;19.98;15.38;;;;;;;18.28;67.88;99266.09;4995614;28;20045;-69
2021/07/24 04:54:48;;;;;;;17.98;14.60;;;;;;;18.28;67.83;99273.97;4996132;28;20057;-70
2021/07/24 04:57:34;;;;;;;19.25;15.65;;;;;;;18.28;67.99;99281.84;4995326;28;20053;-71
2021/07/24 05:00:21;;;;;;;20.95;14.55;;;;;;;18.28;67.97;99271.34;4995724;28;20569;-69
2021/07/24 05:03:06;;;;;;;22.30;15.35;;;;;;;18.29;67.94;99275.69;4995297;28;20054;-70
2021/07/24 05:05:53;;;;;;;21.00;16.10;;;;;;;18.31;67.67;99275.63;4995708;28;20465;-71
2021/07/24 05:08:37;;;;;;;23.77;14.75;;;;;;;18.34;68.04;99276.44;4995965;28;20084;-71
2021/07/24 05:11:22;;;;;;;26.48;15.50;;;;;;;18.35;68.08;99277.28;4995585;28;20109;-71
2021/07/24 05:14:08;;;;;;;19.73;15.43;;;;;;;18.36;68.44;99268.50;4995124;28;20592;-70
2021/07/24 05:16:52;;;;;;;18.88;15.30;;;;;;;18.36;68.12;99268.50;4995425;28;20057;-70
2021/07/24 05:19:46;;;;;;;21.05;14.90;;;;;;;18.37;68.14;99265.84;4981182;28;20101;-71
2021/07/24 05:22:30;;;;;;;17.73;14.50;;;;;;;18.37;68.24;99255.34;4980128;28;20081;-70
2021/07/24 05:25:16;;;;;;;18.75;14.18;;;;;;;18.37;68.08;99250.09;4995460;28;20045;-71
2021/07/24 05:28:01;;;;;;;20.70;14.82;;;;;;;18.36;68.14;99231.78;4995273;28;20053;-69
2021/07/24 05:30:47;;;;;;;19.88;14.95;;;;;;;18.35;68.16;99222.19;4994804;28;20040;-69
2021/07/24 05:33:31;;;;;;;21.05;15.38;;;;;;;18.33;68.14;99216.13;4979397;28;20104;-71
2021/07/24 05:36:15;;;;;;;17.60;14.25;;;;;;;18.33;68.07;99205.66;4994902;28;20053;-70
2021/07/24 05:39:08;;;;;;;20.15;15.05;;;;;;;18.31;68.00;99205.69;4980674;28;20052;-71
2021/07/24 05:41:53;;;;;;;19.23;14.90;;;;;;;18.30;68.20;99198.72;4980562;28;20107;-70
2021/07/24 05:44:37;;;;;;;19.83;14.70;;;;;;;18.30;68.39;99190.00;4980492;28;20052;-70
2021/07/24 05:47:24;;;;;;;25.08;14.85;;;;;;;18.31;68.62;99183.84;4994891;28;20077;-71
2021/07/24 05:50:13;;;;;;;19.05;14.77;;;;;;;18.30;68.39;99174.25;4995086;28;20564;-70
2021/07/24 05:52:57;;;;;;;18.33;15.05;;;;;;;18.30;68.43;99169.00;4980028;28;20049;-70
2021/07/24 05:55:41;;;;;;;19.15;15.05;;;;;;;18.31;68.55;99161.13;4993572;28;20045;-70
2021/07/24 05:58:28;;;;;;;24.23;14.25;;;;;;;18.31;68.55;99158.50;4994486;28;20533;-70
2021/07/24 06:01:15;;;;;;;25.95;15.60;;;;;;;18.32;68.52;99164.59;4993686;28;20052;-69
2021/07/24 06:03:59;;;;;;;28.90;16.13;;;;;;;18.32;68.58;99161.97;4994169;28;20126;-69
2021/07/24 06:06:43;;;;;;;20.02;14.68;;;;;;;18.33;68.76;99158.44;4994416;28;20528;-71
2021/07/24 06:09:27;;;;;;;24.23;15.57;;;;;;;18.34;68.49;99160.16;4994637;28;20049;-71
2021/07/24 06:12:11;;;;;;;20.27;15.48;;;;;;;18.34;68.70;99157.53;4979430;28;20113;-69
2021/07/24 06:14:58;;;;;;;20.95;14.98;;;;;;;18.34;68.63;99149.66;4994260;28;20121;-70
2021/07/24 06:17:42;;;;;;;24.75;15.90;;;;;;;18.36;68.72;99150.47;4979496;28;20417;-70
2021/07/24 06:20:31;;;;;;;19.73;15.50;;;;;;;18.37;68.73;99144.31;4994407;28;20461;-70
2021/07/24 06:23:16;;;;;;;20.20;15.82;;;;;;;18.36;68.73;99143.47;4954974;28;20418;-71
2021/07/24 06:26:02;;;;;;;22.13;15.90;;;;;;;18.37;68.61;99133.84;4955496;29;20178;-70
2021/07/24 06:28:46;;;;;;;23.73;14.93;;;;;;;18.39;68.87;99126.78;4955226;29;20162;-70
2021/07/24 06:31:29;;;;;;;22.20;15.02;;;;;;;18.39;68.57;99105.81;4955716;29;20142;-70
2021/07/24 06:34:16;;;;;;;19.88;14.88;;;;;;;18.40;68.78;99099.66;4955438;28;20054;-71
2021/07/24 06:37:03;;;;;;;20.10;14.93;;;;;;;18.40;68.88;99116.22;4954679;29;20134;-70
2021/07/24 06:39:50;;;;;;;19.52;15.18;;;;;;;18.42;69.03;99103.09;4955510;29;20050;-71
2021/07/24 06:42:42;;;;;;;23.05;15.25;;;;;;;18.45;68.75;99091.63;4954982;28;20065;-69
2021/07/24 06:45:26;;;;;;;25.33;15.60;;;;;;;18.44;68.93;99084.66;4953990;29;20199;-69
2021/07/24 06:48:10;;;;;;;24.10;16.75;;;;;;;18.44;69.07;99072.44;4953966;29;20050;-70
2021/07/24 06:50:57;;;;;;;20.20;15.65;;;;;;;18.45;69.02;99061.00;4955492;29;20058;-69
2021/07/24 06:53:41;;;;;;;19.40;14.95;;;;;;;18.44;69.07;99048.81;4955461;29;20517;-70
2021/07/24 06:56:25;;;;;;;18.95;15.45;;;;;;;18.44;69.20;99064.56;4968330;28;20064;-70
2021/07/24 06:59:12;;;;;;;22.27;15.68;;;;;;;18.44;68.98;99075.06;4955126;29;20046;-71
2021/07/24 07:01:59;;;;;;;23.15;16.42;;;;;;;18.45;69.10;99097.72;4968221;28;20051;-70
2021/07/24 07:04:46;;;;;;;21.73;15.82;;;;;;;18.47;68.90;99114.28;4954174;29;20101;-70
2021/07/24 07:07:30;;;;;;;25.33;15.05;;;;;;;18.48;69.10;99126.47;4955280;28;20047;-72
2021/07/24 07:10:20;;;;;;;23.38;17.48;;;;;;;18.51;69.04;99120.31;4955183;28;20055;-70
2021/07/24 07:13:10;;;;;;;22.80;15.48;;;;;;;18.51;69.11;99115.06;4953825;29;20106;-70
2021/07/24 07:16:00;;;;;;;22.38;16.17;;;;;;;18.51;69.30;99105.41;4954094;29;20049;-71
2021/07/24 07:18:44;;;;;;;19.95;16.25;;;;;;;18.51;68.81;99115.91;4955025;28;20107;-70
2021/07/24 07:21:30;;;;;;;21.42;17.13;;;;;;;18.52;69.07;99125.50;4963296;28;20061;-69
2021/07/24 07:24:15;;;;;;;24.55;17.52;;;;;;;18.54;68.98;99122.81;4993614;28;20168;-69
2021/07/24 07:26:59;;;;;;;22.00;15.45;;;;;;;18.54;69.13;99118.44;4979064;28;20050;-70
2021/07/24 07:29:43;;;;;;;22.55;15.23;;;;;;;18.53;69.15;99116.72;4978861;28;20100;-70
2021/07/24 07:32:26;;;;;;;20.45;17.05;;;;;;;18.54;69.18;99136.81;4978898;28;20125;-69
2021/07/24 07:35:13;;;;;;;23.45;17.30;;;;;;;18.56;69.18;99134.13;4993612;28;20081;-70
2021/07/24 07:38:00;;;;;;;22.77;16.25;;;;;;;18.56;69.10;99128.88;4993391;28;20100;-69
2021/07/24 07:40:44;;;;;;;20.75;15.63;;;;;;;18.58;69.35;99136.72;4993397;28;20137;-71
2021/07/24 07:43:28;;;;;;;20.75;16.52;;;;;;;18.60;69.23;99142.78;4979001;28;20057;-70
2021/07/24 07:46:20;;;;;;;21.15;16.02;;;;;;;18.60;69.41;99146.25;4979168;28;20049;-70
2021/07/24 07:49:10;;;;;;;24.05;15.75;;;;;;;18.61;69.16;99147.13;4993055;28;20048;-69
2021/07/24 07:51:57;;;;;;;20.08;15.77;;;;;;;18.63;69.45;99161.91;4993623;28;20504;-70
2021/07/24 07:54:43;;;;;;;23.45;16.75;;;;;;;18.63;69.57;99163.66;4993011;28;20076;-70
2021/07/24 07:57:30;;;;;;;23.65;17.02;;;;;;;18.63;69.73;99161.03;4994627;28;20610;-70
2021/07/24 08:00:15;;;;;;;22.85;17.25;;;;;;;18.66;69.51;99179.28;4996906;28;20410;-69
2021/07/24 08:03:00;;;;;;;21.05;16.48;;;;;;;18.67;69.49;99165.28;4996714;28;20100;-71
2021/07/24 08:05:44;;;;;;;21.42;15.60;;;;;;;18.68;69.70;99170.50;4982317;28;20096;-70
2021/07/24 08:08:28;;;;;;;20.38;16.25;;;;;;;18.68;69.70;99173.13;4996514;28;20485;-70
2021/07/24 08:11:18;;;;;;;23.08;16.65;;;;;;;18.68;70.20;99180.13;4996790;28;20088;-70
2021/07/24 08:14:13;;;;;;;18.77;15.13;;;;;;;18.71;69.37;99185.28;4996853;28;20046;-69
2021/07/24 08:17:06;;;;;;;20.05;16.52;;;;;;;18.70;69.92;99201.91;4996532;28;20116;-70
2021/07/24 08:19:56;;;;;;;20.30;15.75;;;;;;;18.70;69.66;99197.53;4981701;28;20053;-70
2021/07/24 08:22:40;;;;;;;21.75;15.77;;;;;;;18.71;69.90;99201.03;4981255;28;20053;-69
2021/07/24 08:25:32;;;;;;;16.73;14.93;;;;;;;18.72;69.82;99211.47;4996404;28;20045;-71
2021/07/24 08:28:25;;;;;;;22.27;15.25;;;;;;;18.72;69.84;99208.84;4982082;28;20057;-70
2021/07/24 08:31:14;;;;;;;20.85;16.17;;;;;;;18.73;70.00;99217.59;4981427;28;20045;-69
2021/07/24 08:33:58;;;;;;;20.15;16.27;;;;;;;18.74;69.67;99214.06;4981879;28;20112;-70
2021/07/24 08:36:45;;;;;;;21.38;15.77;;;;;;;18.73;69.78;99207.09;4981458;28;20456;-69
2021/07/24 08:39:35;;;;;;;24.27;15.70;;;;;;;18.74;69.85;99221.94;4996476;28;20050;-70
2021/07/24 08:42:37;;;;;;;27.77;17.95;;;;;;;18.75;69.89;99228.03;4996196;28;20528;-71
2021/07/24 08:45:27;;;;;;;22.50;16.77;;;;;;;18.75;69.82;99231.53;4980419;28;20045;-71
2021/07/24 08:48:21;;;;;;;21.10;16.45;;;;;;;18.75;69.96;99239.41;4996099;28;20093;-71
2021/07/24 08:51:14;;;;;;;20.70;15.68;;;;;;;18.74;69.67;99240.31;4995967;28;20054;-70
2021/07/24 08:53:58;;;;;;;24.17;16.73;;;;;;;18.76;70.00;99235.00;4996155;28;20049;-70
2021/07/24 08:56:46;;;;;;;21.50;16.20;;;;;;;18.76;69.95;99241.13;4996194;28;20056;-70
2021/07/24 08:59:36;;;;;;;20.27;16.08;;;;;;;18.78;70.02;99244.53;4995621;28;20457;-70
2021/07/24 09:02:32;;;;;;;22.42;16.10;;;;;;;18.80;70.00;99244.50;4996309;28;20061;-70
2021/07/24 09:05:26;;;;;;;18.95;15.60;;;;;;;18.81;70.05;99244.44;4981178;28;20452;-71
2021/07/24 09:08:22;;;;;;;19.63;15.35;;;;;;;18.82;69.91;99258.44;4980581;28;20045;-70
2021/07/24 09:11:17;;;;;;;20.80;15.20;;;;;;;18.83;69.85;99255.75;4981049;28;20517;-69
2021/07/24 09:14:09;;;;;;;;;;;;;;;18.82;69.54;99261.06;4981116;28;20129;-70
2021/07/24 09:17:07;;;;;;;19.42;14.70;;;;;;;18.81;69.94;99260.19;4980585;28;19972;-71
2021/07/24 09:19:52;;;;;;;18.65;15.07;;;;;;;18.83;69.79;99252.28;4995462;28;20465;-70
2021/07/24 09:22:41;;;;;;;22.70;15.15;;;;;;;18.83;69.95;99247.03;4980798;28;20061;-70
2021/07/24 09:25:25;;;;;;;35.03;18.40;;;;;;;18.83;69.70;99253.13;4995390;28;20104;-70
2021/07/24 09:28:14;;;;;;;41.83;20.23;;;;;;;18.84;69.68;99249.59;4995461;28;20050;-71
2021/07/24 09:31:27;;;;;;;37.05;17.65;;;;;;;18.85;69.69;99259.19;4980803;28;20053;-70
2021/07/24 09:34:23;;;;;;;28.75;17.10;;;;;;;18.85;69.74;99256.56;4980579;28;20057;-69
2021/07/24 09:37:31;;;;;;;28.52;17.45;;;;;;;18.85;69.55;99267.06;4994721;28;20045;-70
2021/07/24 09:40:27;;;;;;;31.52;16.25;;;;;;;18.86;69.71;99267.91;4994825;28;20046;-70
2021/07/24 09:43:30;;;;;;;22.35;16.48;;;;;;;18.85;69.45;99264.44;4980335;28;20093;-70
2021/07/24 09:46:18;;;;;;;24.30;15.98;;;;;;;18.85;69.71;99274.94;4980002;28;20053;-69
2021/07/24 09:49:12;;;;;;;24.55;16.33;;;;;;;18.85;69.63;99261.81;4980275;28;20138;-70
2021/07/24 09:52:14;;;;;;;18.27;14.40;;;;;;;18.85;69.68;99263.56;4979908;28;20469;-71
2021/07/24 09:55:22;;;;;;;24.17;15.85;;;;;;;18.86;69.69;99267.91;4980137;28;20093;-71
2021/07/24 09:58:26;;;;;;;22.95;15.93;;;;;;;18.86;69.66;99276.66;4994699;28;20472;-70
2021/07/24 10:01:26;;;;;;;20.23;14.97;;;;;;;18.87;69.70;99275.75;4980154;28;20053;-70
2021/07/24 10:04:11;;;;;;;24.58;16.45;;;;;;;18.89;69.90;99277.47;4994193;28;20061;-70
2021/07/24 10:07:06;;;;;;;23.45;15.68;;;;;;;18.90;69.82;99280.03;4979653;28;20193;-70
2021/07/24 10:09:57;;;;;;;19.42;15.50;;;;;;;18.91;70.06;99283.56;4980138;28;20057;-71
2021/07/24 10:12:48;;;;;;;24.10;14.93;;;;;;;18.93;69.83;99273.84;4994514;28;20516;-70
2021/07/24 10:15:44;;;;;;;22.98;15.55;;;;;;;18.94;69.92;99272.94;4994490;28;20105;-70
2021/07/24 10:18:36;;;;;;;18.63;14.63;;;;;;;18.95;69.86;99283.44;4994115;28;20049;-70
2021/07/24 10:21:28;;;;;;;17.20;13.07;;;;;;;18.96;69.95;99289.53;4993926;28;20065;-70
2021/07/24 10:24:16;;;;;;;20.63;14.20;;;;;;;18.96;69.90;99281.66;4994546;28;20110;-72
2021/07/24 10:27:06;;;;;;;20.33;14.95;;;;;;;18.97;69.97;99276.38;4993967;28;20100;-71
2021/07/24 10:29:52;;;;;;;18.65;14.70;;;;;;;18.97;69.78;99272.88;4979372;28;20049;-71
2021/07/24 10:32:39;;;;;;;22.73;14.68;;;;;;;18.97;69.85;99279.00;4994012;28;20050;-71
2021/07/24 10:35:42;;;;;;;18.98;13.93;;;;;;;18.98;69.63;99278.09;4979886;28;20108;-70
2021/07/24 10:38:32;;;;;;;20.13;14.70;;;;;;;18.96;69.96;99282.53;4994366;28;20045;-70
2021/07/24 10:41:22;;;;;;;17.80;13.18;;;;;;;18.98;70.26;99290.34;4979744;28;20100;-70
2021/07/24 10:44:17;;;;;;;19.70;14.50;;;;;;;18.97;70.13;99294.75;4993962;28;20456;-69
2021/07/24 10:47:11;;;;;;;18.20;14.02;;;;;;;18.98;70.29;99293.84;4979285;28;20080;-69
2021/07/24 10:50:01;;;;;;;;;;;;;;;18.97;70.28;99293.88;4994586;28;20092;-69
2021/07/24 10:53:08;;;;;;;16.85;13.85;;;;;;;18.96;70.09;99307.91;4992693;28;20021;-71
2021/07/24 10:55:52;;;;;;;22.23;14.20;;;;;;;18.96;70.64;99305.28;4993723;28;20065;-71
2021/07/24 10:58:59;;;;;;;19.58;14.88;;;;;;;18.94;70.50;99301.81;4979289;28;20046;-70
2021/07/24 11:01:56;;;;;;;19.35;15.65;;;;;;;18.95;70.66;99303.56;4979226;28;20096;-71
2021/07/24 11:04:50;;;;;;;21.45;16.05;;;;;;;18.95;70.80;99301.81;4979430;28;20397;-70
2021/07/24 11:07:34;;;;;;;22.40;13.70;;;;;;;18.94;70.99;99300.09;4979229;28;20517;-69
2021/07/24 11:10:27;;;;;;;20.25;14.90;;;;;;;18.95;71.25;99307.06;4979670;28;20085;-70
2021/07/24 11:13:46;;;;;;;19.17;15.95;;;;;;;18.95;70.94;99304.44;4993798;28;20093;-71
2021/07/24 11:17:08;;;;;;;21.15;15.52;;;;;;;18.95;71.13;99314.94;4993946;28;20089;-71
2021/07/24 11:19:52;;;;;;;25.05;16.00;;;;;;;18.97;71.28;99323.63;4979313;28;20106;-70
2021/07/24 11:22:59;;;;;;;17.88;14.57;;;;;;;18.97;71.26;99320.13;4993867;28;20061;-70
2021/07/24 11:25:46;;;;;;;22.45;14.27;;;;;;;18.97;71.47;99325.38;4979101;28;20446;-71
2021/07/24 11:28:30;;;;;;;19.38;15.73;;;;;;;18.98;71.46;99325.34;4993946;28;20053;-71
2021/07/24 11:31:19;;;;;;;20.33;14.80;;;;;;;18.98;71.59;99324.47;4979958;28;20053;-71
2021/07/24 11:34:03;;;;;;;19.08;13.50;;;;;;;18.99;71.78;99323.56;4997289;28;20045;-71
2021/07/24 11:36:51;;;;;;;25.40;15.82;;;;;;;18.98;71.98;99324.47;4997621;28;20100;-70
2021/07/24 11:39:35;;;;;;;22.42;16.13;;;;;;;18.99;71.83;99326.19;4982564;28;20097;-70
2021/07/24 11:42:22;;;;;;;25.02;16.40;;;;;;;18.98;71.66;99319.22;4996940;28;20049;-72
2021/07/24 11:45:07;;;;;;;19.48;16.27;;;;;;;18.98;71.99;99320.09;4996679;28;20065;-71
2021/07/24 11:48:20;;;;;;;;;;;;;;;18.97;71.66;99321.00;4982793;28;20134;-71
2021/07/24 11:51:09;;;;;;;25.17;16.83;;;;;;;18.95;72.00;99311.44;4979068;28;19993;-69
2021/07/24 11:53:53;;;;;;;22.42;16.30;;;;;;;18.97;72.15;99317.50;4982412;28;20061;-70
2021/07/24 11:56:40;;;;;;;24.35;16.67;;;;;;;18.96;72.26;99310.53;4997131;28;20049;-71
2021/07/24 11:59:31;;;;;;;23.30;15.98;;;;;;;18.96;72.10;99310.53;4996863;28;20126;-70
2021/07/24 12:02:19;;;;;;;24.33;16.52;;;;;;;18.96;72.66;99313.16;4996685;28;20053;-71
2021/07/24 12:05:08;;;;;;;21.10;17.02;;;;;;;18.97;72.73;99309.63;4982298;28;20577;-71
2021/07/24 12:08:04;;;;;;;24.02;16.55;;;;;;;18.98;72.62;99327.09;4981885;28;20560;-73
2021/07/24 12:11:00;;;;;;;25.15;17.00;;;;;;;18.98;72.37;99321.84;4996536;28;20056;-71
2021/07/24 12:13:47;;;;;;;20.42;16.13;;;;;;;18.98;72.55;99319.22;4996286;28;20045;-71
2021/07/24 12:16:39;;;;;;;23.05;16.45;;;;;;;18.98;72.37;99324.47;4981716;28;20177;-72
2021/07/24 12:19:23;;;;;;;23.38;16.67;;;;;;;18.98;72.92;99324.47;4996326;28;20115;-70
2021/07/24 12:22:20;;;;;;;23.48;15.68;;;;;;;18.99;72.52;99328.81;4981854;28;20061;-71
2021/07/24 12:25:15;;;;;;;20.52;15.43;;;;;;;18.98;72.86;99324.47;4981524;28;20045;-71
2021/07/24 12:28:10;;;;;;;20.77;16.58;;;;;;;18.98;72.93;99332.34;4981818;28;20053;-71
2021/07/24 12:31:20;;;;;;;21.98;16.27;;;;;;;18.98;72.89;99320.09;4995988;28;20053;-72
2021/07/24 12:34:15;;;;;;;23.50;15.98;;;;;;;18.99;72.97;99320.94;4995503;28;20042;-70
2021/07/24 12:37:08;;;;;;;20.55;16.20;;;;;;;19.00;73.03;99320.03;4981892;28;20462;-72
2021/07/24 12:40:18;;;;;;;24.20;16.02;;;;;;;18.99;73.09;99319.19;4981547;28;20101;-72
2021/07/24 12:43:13;;;;;;;19.48;15.68;;;;;;;19.01;72.90;99308.63;4981067;28;20056;-72
2021/07/24 12:46:17;;;;;;;18.75;15.13;;;;;;;19.03;73.15;99306.84;4996376;28;20053;-72
2021/07/24 12:49:05;;;;;;;22.52;15.68;;;;;;;19.02;73.16;99303.31;4996234;28;20081;-71
2021/07/24 12:51:57;;;;;;;20.02;15.73;;;;;;;19.04;73.08;99300.69;4996167;28;20101;-72
2021/07/24 12:55:05;;;;;;;20.25;15.93;;;;;;;19.06;73.08;99295.38;4995589;28;20048;-72
2021/07/24 12:58:00;;;;;;;20.05;14.90;;;;;;;19.06;73.24;99298.88;4994248;28;20413;-71
2021/07/24 13:00:47;;;;;;;20.27;15.07;;;;;;;19.08;73.29;99301.44;4995658;28;20061;-71
2021/07/24 13:03:37;;;;;;;19.75;14.48;;;;;;;19.09;73.39;99303.16;4981539;28;20050;-72